sensor_id;sensor_type;location;lat;lon;timestamp;temperature;humidity
65036;DHT22;51603;49.300;8.880;2023-03-23T00:01:11;13.10;95.30
65036;DHT22;51603;49.300;8.880;2023-03-23T00:03:39;13.10;95.70
65036;DHT22;51603;49.300;8.880;2023-03-23T00:06:05;13.00;96.10
65036;DHT22;51603;49.300;8.880;2023-03-23T00:08:37;12.90;96.40
65036;DHT22;51603;49.300;8.880;2023-03-23T00:11:15;12.90;96.90
65036;DHT22;51603;49.300;8.880;2023-03-23T00:13:42;12.90;97.20
65036;DHT22;51603;49.300;8.880;2023-03-23T00:16:09;12.80;97.20
65036;DHT22;51603;49.300;8.880;2023-03-23T00:18:44;12.80;97.30
65036;DHT22;51603;49.300;8.880;2023-03-23T00:21:10;12.80;97.20
65036;DHT22;51603;49.300;8.880;2023-03-23T00:23:35;12.80;97.10
65036;DHT22;51603;49.300;8.880;2023-03-23T00:26:01;12.80;97.60
65036;DHT22;51603;49.300;8.880;2023-03-23T00:28:27;12.70;97.20
65036;DHT22;51603;49.300;8.880;2023-03-23T00:30:57;12.90;96.40
65036;DHT22;51603;49.300;8.880;2023-03-23T00:33:27;12.90;96.40
65036;DHT22;51603;49.300;8.880;2023-03-23T00:35:54;12.90;96.20
65036;DHT22;51603;49.300;8.880;2023-03-23T00:38:24;12.90;96.10
65036;DHT22;51603;49.300;8.880;2023-03-23T00:40:50;12.90;95.90
65036;DHT22;51603;49.300;8.880;2023-03-23T00:43:17;13.00;95.40
65036;DHT22;51603;49.300;8.880;2023-03-23T00:45:43;13.00;95.60
65036;DHT22;51603;49.300;8.880;2023-03-23T00:48:22;12.90;95.80
65036;DHT22;51603;49.300;8.880;2023-03-23T00:50:49;12.90;95.40
65036;DHT22;51603;49.300;8.880;2023-03-23T00:53:15;12.90;95.70
65036;DHT22;51603;49.300;8.880;2023-03-23T00:55:42;12.90;95.70
65036;DHT22;51603;49.300;8.880;2023-03-23T00:58:09;12.90;95.90
65036;DHT22;51603;49.300;8.880;2023-03-23T01:00:35;12.80;96.00
65036;DHT22;51603;49.300;8.880;2023-03-23T01:03:00;12.80;96.30
65036;DHT22;51603;49.300;8.880;2023-03-23T01:05:26;12.70;96.60
65036;DHT22;51603;49.300;8.880;2023-03-23T01:07:57;12.70;96.40
65036;DHT22;51603;49.300;8.880;2023-03-23T01:10:23;12.70;96.40
65036;DHT22;51603;49.300;8.880;2023-03-23T01:12:52;12.70;96.60
65036;DHT22;51603;49.300;8.880;2023-03-23T01:15:18;12.70;96.90
65036;DHT22;51603;49.300;8.880;2023-03-23T01:17:44;12.70;97.30
65036;DHT22;51603;49.300;8.880;2023-03-23T01:20:12;12.70;97.50
65036;DHT22;51603;49.300;8.880;2023-03-23T01:22:39;12.60;97.60
65036;DHT22;51603;49.300;8.880;2023-03-23T01:25:06;12.70;97.30
65036;DHT22;51603;49.300;8.880;2023-03-23T01:27:32;12.70;97.60
65036;DHT22;51603;49.300;8.880;2023-03-23T01:29:57;12.60;97.50
65036;DHT22;51603;49.300;8.880;2023-03-23T01:32:23;12.60;97.70
65036;DHT22;51603;49.300;8.880;2023-03-23T01:34:48;12.50;97.80
65036;DHT22;51603;49.300;8.880;2023-03-23T01:37:14;12.50;97.90
65036;DHT22;51603;49.300;8.880;2023-03-23T01:39:41;12.50;98.00
65036;DHT22;51603;49.300;8.880;2023-03-23T01:42:08;12.50;98.00
65036;DHT22;51603;49.300;8.880;2023-03-23T01:46:59;12.40;98.40
65036;DHT22;51603;49.300;8.880;2023-03-23T01:49:29;12.30;98.60
65036;DHT22;51603;49.300;8.880;2023-03-23T01:52:00;12.30;98.60
65036;DHT22;51603;49.300;8.880;2023-03-23T01:54:27;12.30;98.60
65036;DHT22;51603;49.300;8.880;2023-03-23T01:56:56;12.30;98.60
65036;DHT22;51603;49.300;8.880;2023-03-23T01:59:24;12.30;98.70
65036;DHT22;51603;49.300;8.880;2023-03-23T02:01:51;12.30;98.70
65036;DHT22;51603;49.300;8.880;2023-03-23T02:04:18;12.30;98.60
65036;DHT22;51603;49.300;8.880;2023-03-23T02:06:45;12.30;98.60
65036;DHT22;51603;49.300;8.880;2023-03-23T02:09:12;12.30;98.50
65036;DHT22;51603;49.300;8.880;2023-03-23T02:11:45;12.40;98.70
65036;DHT22;51603;49.300;8.880;2023-03-23T02:14:11;12.40;98.50
65036;DHT22;51603;49.300;8.880;2023-03-23T02:25:45;12.30;98.60
65036;DHT22;51603;49.300;8.880;2023-03-23T02:28:37;12.30;99.50
65036;DHT22;51603;49.300;8.880;2023-03-23T02:31:21;12.20;99.90
65036;DHT22;51603;49.300;8.880;2023-03-23T02:34:09;12.10;99.90
65036;DHT22;51603;49.300;8.880;2023-03-23T02:36:40;12.00;99.90
65036;DHT22;51603;49.300;8.880;2023-03-23T02:39:21;12.00;99.90
65036;DHT22;51603;49.300;8.880;2023-03-23T02:41:52;11.90;99.90
65036;DHT22;51603;49.300;8.880;2023-03-23T02:44:21;11.90;99.90
65036;DHT22;51603;49.300;8.880;2023-03-23T02:46:48;11.90;99.90
65036;DHT22;51603;49.300;8.880;2023-03-23T02:49:15;11.80;99.90
65036;DHT22;51603;49.300;8.880;2023-03-23T02:51:44;11.80;99.90
65036;DHT22;51603;49.300;8.880;2023-03-23T02:54:11;11.80;99.90
65036;DHT22;51603;49.300;8.880;2023-03-23T02:56:38;11.80;99.90
65036;DHT22;51603;49.300;8.880;2023-03-23T02:59:04;11.80;99.90
65036;DHT22;51603;49.300;8.880;2023-03-23T03:04:07;11.80;99.90
65036;DHT22;51603;49.300;8.880;2023-03-23T03:15:10;11.80;99.90
65036;DHT22;51603;49.300;8.880;2023-03-23T03:17:46;11.80;99.90
65036;DHT22;51603;49.300;8.880;2023-03-23T03:20:15;11.70;99.90
65036;DHT22;51603;49.300;8.880;2023-03-23T03:22:43;11.70;99.90
65036;DHT22;51603;49.300;8.880;2023-03-23T03:25:11;11.70;99.90
65036;DHT22;51603;49.300;8.880;2023-03-23T03:27:42;11.70;99.90
65036;DHT22;51603;49.300;8.880;2023-03-23T03:30:11;11.70;99.90
65036;DHT22;51603;49.300;8.880;2023-03-23T03:32:44;11.60;99.90
65036;DHT22;51603;49.300;8.880;2023-03-23T03:35:12;11.60;99.90
65036;DHT22;51603;49.300;8.880;2023-03-23T03:37:38;11.60;99.90
65036;DHT22;51603;49.300;8.880;2023-03-23T03:40:11;11.60;99.90
65036;DHT22;51603;49.300;8.880;2023-03-23T03:42:41;11.60;99.90
65036;DHT22;51603;49.300;8.880;2023-03-23T03:45:09;11.60;99.90
65036;DHT22;51603;49.300;8.880;2023-03-23T03:47:35;11.50;99.90
65036;DHT22;51603;49.300;8.880;2023-03-23T03:50:01;11.50;99.90
65036;DHT22;51603;49.300;8.880;2023-03-23T03:52:26;11.50;99.90
65036;DHT22;51603;49.300;8.880;2023-03-23T03:54:53;11.50;99.90
65036;DHT22;51603;49.300;8.880;2023-03-23T03:57:18;11.60;99.90
65036;DHT22;51603;49.300;8.880;2023-03-23T03:59:44;11.60;99.90
65036;DHT22;51603;49.300;8.880;2023-03-23T04:02:11;11.50;99.90
65036;DHT22;51603;49.300;8.880;2023-03-23T04:04:40;11.60;99.90
65036;DHT22;51603;49.300;8.880;2023-03-23T04:07:07;11.60;99.90
65036;DHT22;51603;49.300;8.880;2023-03-23T04:09:32;11.60;99.90
65036;DHT22;51603;49.300;8.880;2023-03-23T04:11:58;11.60;99.90
65036;DHT22;51603;49.300;8.880;2023-03-23T04:14:23;11.50;99.90
65036;DHT22;51603;49.300;8.880;2023-03-23T04:16:49;11.60;99.90
65036;DHT22;51603;49.300;8.880;2023-03-23T04:19:17;11.60;99.90
65036;DHT22;51603;49.300;8.880;2023-03-23T04:21:44;11.60;99.90
65036;DHT22;51603;49.300;8.880;2023-03-23T04:24:15;11.60;99.90
65036;DHT22;51603;49.300;8.880;2023-03-23T04:26:40;11.60;99.90
65036;DHT22;51603;49.300;8.880;2023-03-23T04:29:10;11.60;99.90
65036;DHT22;51603;49.300;8.880;2023-03-23T04:31:37;11.80;99.90
65036;DHT22;51603;49.300;8.880;2023-03-23T04:34:04;11.80;99.90
65036;DHT22;51603;49.300;8.880;2023-03-23T04:36:29;11.90;99.90
65036;DHT22;51603;49.300;8.880;2023-03-23T04:38:55;12.10;99.90
65036;DHT22;51603;49.300;8.880;2023-03-23T04:41:22;12.30;99.90
65036;DHT22;51603;49.300;8.880;2023-03-23T04:43:48;12.40;99.90
65036;DHT22;51603;49.300;8.880;2023-03-23T04:46:17;12.50;99.90
65036;DHT22;51603;49.300;8.880;2023-03-23T04:48:45;12.60;99.90
65036;DHT22;51603;49.300;8.880;2023-03-23T04:51:11;12.70;99.90
65036;DHT22;51603;49.300;8.880;2023-03-23T04:53:38;12.70;99.90
65036;DHT22;51603;49.300;8.880;2023-03-23T04:56:03;12.70;99.90
65036;DHT22;51603;49.300;8.880;2023-03-23T04:58:29;12.80;99.90
65036;DHT22;51603;49.300;8.880;2023-03-23T05:00:59;13.00;99.90
65036;DHT22;51603;49.300;8.880;2023-03-23T05:03:25;13.10;99.90
65036;DHT22;51603;49.300;8.880;2023-03-23T05:05:53;13.20;99.90
65036;DHT22;51603;49.300;8.880;2023-03-23T05:08:19;13.20;99.80
65036;DHT22;51603;49.300;8.880;2023-03-23T05:10:53;13.30;99.60
65036;DHT22;51603;49.300;8.880;2023-03-23T05:13:19;13.30;99.90
65036;DHT22;51603;49.300;8.880;2023-03-23T05:15:45;13.40;99.90
65036;DHT22;51603;49.300;8.880;2023-03-23T05:18:11;13.40;99.90
65036;DHT22;51603;49.300;8.880;2023-03-23T05:20:36;13.50;99.90
65036;DHT22;51603;49.300;8.880;2023-03-23T05:23:02;13.70;99.90
65036;DHT22;51603;49.300;8.880;2023-03-23T05:25:28;13.70;99.90
65036;DHT22;51603;49.300;8.880;2023-03-23T05:27:53;13.60;99.90
65036;DHT22;51603;49.300;8.880;2023-03-23T05:30:20;13.60;99.90
65036;DHT22;51603;49.300;8.880;2023-03-23T05:32:47;13.40;99.90
65036;DHT22;51603;49.300;8.880;2023-03-23T05:35:16;13.40;99.90
65036;DHT22;51603;49.300;8.880;2023-03-23T05:37:42;13.30;99.90
65036;DHT22;51603;49.300;8.880;2023-03-23T05:40:09;13.20;99.90
65036;DHT22;51603;49.300;8.880;2023-03-23T05:42:37;13.10;99.90
65036;DHT22;51603;49.300;8.880;2023-03-23T05:45:04;12.90;99.90
65036;DHT22;51603;49.300;8.880;2023-03-23T05:47:30;12.90;99.90
65036;DHT22;51603;49.300;8.880;2023-03-23T05:49:56;12.80;99.90
65036;DHT22;51603;49.300;8.880;2023-03-23T05:52:21;12.80;99.90
65036;DHT22;51603;49.300;8.880;2023-03-23T05:54:49;12.70;99.90
65036;DHT22;51603;49.300;8.880;2023-03-23T05:57:15;12.70;99.90
65036;DHT22;51603;49.300;8.880;2023-03-23T05:59:40;12.70;99.90
65036;DHT22;51603;49.300;8.880;2023-03-23T06:02:06;12.70;99.90
65036;DHT22;51603;49.300;8.880;2023-03-23T06:04:32;12.60;99.90
65036;DHT22;51603;49.300;8.880;2023-03-23T06:07:00;12.60;99.90
65036;DHT22;51603;49.300;8.880;2023-03-23T06:09:26;12.60;99.90
65036;DHT22;51603;49.300;8.880;2023-03-23T06:11:52;12.60;99.90
65036;DHT22;51603;49.300;8.880;2023-03-23T06:14:17;12.50;99.90
65036;DHT22;51603;49.300;8.880;2023-03-23T06:16:43;12.50;99.90
65036;DHT22;51603;49.300;8.880;2023-03-23T06:19:08;12.50;99.90
65036;DHT22;51603;49.300;8.880;2023-03-23T06:21:34;12.50;99.90
65036;DHT22;51603;49.300;8.880;2023-03-23T06:24:00;12.50;99.90
65036;DHT22;51603;49.300;8.880;2023-03-23T06:26:30;12.50;99.90
65036;DHT22;51603;49.300;8.880;2023-03-23T06:28:56;12.40;99.90
65036;DHT22;51603;49.300;8.880;2023-03-23T06:31:23;12.60;99.90
65036;DHT22;51603;49.300;8.880;2023-03-23T06:33:49;12.60;99.90
65036;DHT22;51603;49.300;8.880;2023-03-23T06:36:15;12.50;99.90
65036;DHT22;51603;49.300;8.880;2023-03-23T06:38:42;12.50;99.90
65036;DHT22;51603;49.300;8.880;2023-03-23T06:41:07;12.50;99.90
65036;DHT22;51603;49.300;8.880;2023-03-23T06:43:34;12.50;99.90
65036;DHT22;51603;49.300;8.880;2023-03-23T06:46:01;12.50;99.90
65036;DHT22;51603;49.300;8.880;2023-03-23T06:48:27;12.50;99.90
65036;DHT22;51603;49.300;8.880;2023-03-23T06:50:53;12.60;99.90
65036;DHT22;51603;49.300;8.880;2023-03-23T06:53:18;12.60;99.90
65036;DHT22;51603;49.300;8.880;2023-03-23T06:55:46;12.50;99.90
65036;DHT22;51603;49.300;8.880;2023-03-23T06:58:12;12.50;99.90
65036;DHT22;51603;49.300;8.880;2023-03-23T07:00:38;12.60;99.90
65036;DHT22;51603;49.300;8.880;2023-03-23T07:03:06;12.60;99.90
65036;DHT22;51603;49.300;8.880;2023-03-23T07:05:33;12.60;99.90
65036;DHT22;51603;49.300;8.880;2023-03-23T07:07:59;12.70;99.90
65036;DHT22;51603;49.300;8.880;2023-03-23T07:10:25;12.80;99.90
65036;DHT22;51603;49.300;8.880;2023-03-23T07:12:50;12.80;99.90
65036;DHT22;51603;49.300;8.880;2023-03-23T07:15:16;12.80;99.90
65036;DHT22;51603;49.300;8.880;2023-03-23T07:17:42;12.80;99.90
65036;DHT22;51603;49.300;8.880;2023-03-23T07:20:08;12.80;99.90
65036;DHT22;51603;49.300;8.880;2023-03-23T07:22:34;12.70;99.90
65036;DHT22;51603;49.300;8.880;2023-03-23T07:25:00;12.70;99.90
65036;DHT22;51603;49.300;8.880;2023-03-23T07:27:26;12.70;99.90
65036;DHT22;51603;49.300;8.880;2023-03-23T07:29:51;12.70;99.90
65036;DHT22;51603;49.300;8.880;2023-03-23T07:32:17;12.70;99.90
65036;DHT22;51603;49.300;8.880;2023-03-23T07:34:42;12.70;99.90
65036;DHT22;51603;49.300;8.880;2023-03-23T07:37:08;12.70;99.90
65036;DHT22;51603;49.300;8.880;2023-03-23T07:39:34;12.80;99.90
65036;DHT22;51603;49.300;8.880;2023-03-23T07:42:00;12.70;99.90
65036;DHT22;51603;49.300;8.880;2023-03-23T07:44:25;12.70;99.90
65036;DHT22;51603;49.300;8.880;2023-03-23T07:46:51;12.60;99.90
65036;DHT22;51603;49.300;8.880;2023-03-23T07:49:17;12.50;99.90
65036;DHT22;51603;49.300;8.880;2023-03-23T07:51:43;12.40;99.90
65036;DHT22;51603;49.300;8.880;2023-03-23T07:54:09;12.30;99.90
65036;DHT22;51603;49.300;8.880;2023-03-23T07:56:35;12.30;99.90
65036;DHT22;51603;49.300;8.880;2023-03-23T07:59:02;12.20;99.90
65036;DHT22;51603;49.300;8.880;2023-03-23T08:01:28;12.10;99.90
65036;DHT22;51603;49.300;8.880;2023-03-23T08:03:54;12.00;99.90
65036;DHT22;51603;49.300;8.880;2023-03-23T08:06:22;11.90;99.90
65036;DHT22;51603;49.300;8.880;2023-03-23T08:08:48;11.90;99.90
65036;DHT22;51603;49.300;8.880;2023-03-23T08:11:15;11.90;99.90
65036;DHT22;51603;49.300;8.880;2023-03-23T08:13:41;12.00;99.90
65036;DHT22;51603;49.300;8.880;2023-03-23T08:16:08;12.20;99.90
65036;DHT22;51603;49.300;8.880;2023-03-23T08:18:34;12.20;99.90
65036;DHT22;51603;49.300;8.880;2023-03-23T08:21:00;12.30;99.90
65036;DHT22;51603;49.300;8.880;2023-03-23T08:23:26;12.40;99.90
65036;DHT22;51603;49.300;8.880;2023-03-23T08:25:51;12.40;99.90
65036;DHT22;51603;49.300;8.880;2023-03-23T08:28:17;12.50;99.90
65036;DHT22;51603;49.300;8.880;2023-03-23T08:30:42;12.50;99.90
65036;DHT22;51603;49.300;8.880;2023-03-23T08:33:08;12.50;99.90
65036;DHT22;51603;49.300;8.880;2023-03-23T08:35:36;12.50;99.90
65036;DHT22;51603;49.300;8.880;2023-03-23T08:38:02;12.50;99.90
65036;DHT22;51603;49.300;8.880;2023-03-23T08:40:28;12.60;99.90
65036;DHT22;51603;49.300;8.880;2023-03-23T08:42:55;12.60;99.90
65036;DHT22;51603;49.300;8.880;2023-03-23T08:45:23;12.60;99.90
65036;DHT22;51603;49.300;8.880;2023-03-23T08:47:49;12.60;99.90
65036;DHT22;51603;49.300;8.880;2023-03-23T08:50:19;12.70;99.90
65036;DHT22;51603;49.300;8.880;2023-03-23T08:52:45;12.70;99.90
65036;DHT22;51603;49.300;8.880;2023-03-23T08:55:11;12.70;99.90
65036;DHT22;51603;49.300;8.880;2023-03-23T08:57:38;12.70;99.90
65036;DHT22;51603;49.300;8.880;2023-03-23T09:00:06;12.70;99.90
65036;DHT22;51603;49.300;8.880;2023-03-23T09:02:44;12.70;99.90
65036;DHT22;51603;49.300;8.880;2023-03-23T09:05:10;12.80;99.90
65036;DHT22;51603;49.300;8.880;2023-03-23T09:07:38;12.80;99.90
65036;DHT22;51603;49.300;8.880;2023-03-23T09:10:04;12.80;99.90
65036;DHT22;51603;49.300;8.880;2023-03-23T09:12:30;12.80;99.90
65036;DHT22;51603;49.300;8.880;2023-03-23T09:14:56;12.80;99.90
65036;DHT22;51603;49.300;8.880;2023-03-23T09:17:22;12.90;99.90
65036;DHT22;51603;49.300;8.880;2023-03-23T09:19:47;13.00;99.90
65036;DHT22;51603;49.300;8.880;2023-03-23T09:22:13;13.00;99.90
65036;DHT22;51603;49.300;8.880;2023-03-23T09:24:40;13.00;99.90
65036;DHT22;51603;49.300;8.880;2023-03-23T09:27:06;13.10;99.90
65036;DHT22;51603;49.300;8.880;2023-03-23T09:29:32;13.10;99.90
65036;DHT22;51603;49.300;8.880;2023-03-23T09:31:57;13.10;99.90
65036;DHT22;51603;49.300;8.880;2023-03-23T09:34:23;13.10;99.90
65036;DHT22;51603;49.300;8.880;2023-03-23T09:36:49;13.10;99.90
65036;DHT22;51603;49.300;8.880;2023-03-23T09:39:15;13.00;99.90
65036;DHT22;51603;49.300;8.880;2023-03-23T09:42:03;12.90;99.90
65036;DHT22;51603;49.300;8.880;2023-03-23T09:45:00;12.90;99.90
65036;DHT22;51603;49.300;8.880;2023-03-23T09:47:58;12.80;99.90
65036;DHT22;51603;49.300;8.880;2023-03-23T09:50:29;12.80;99.90
65036;DHT22;51603;49.300;8.880;2023-03-23T09:53:13;12.70;99.90
65036;DHT22;51603;49.300;8.880;2023-03-23T09:55:40;12.60;99.90
65036;DHT22;51603;49.300;8.880;2023-03-23T09:58:33;12.60;99.90
65036;DHT22;51603;49.300;8.880;2023-03-23T10:03:55;12.50;99.90
65036;DHT22;51603;49.300;8.880;2023-03-23T10:06:22;12.50;99.90
65036;DHT22;51603;49.300;8.880;2023-03-23T10:08:51;12.50;99.90
65036;DHT22;51603;49.300;8.880;2023-03-23T10:11:42;12.50;99.90
65036;DHT22;51603;49.300;8.880;2023-03-23T10:17:09;12.60;99.90
65036;DHT22;51603;49.300;8.880;2023-03-23T10:22:11;12.70;99.90
65036;DHT22;51603;49.300;8.880;2023-03-23T10:35:29;13.40;99.90
65036;DHT22;51603;49.300;8.880;2023-03-23T10:38:05;13.50;99.90
65036;DHT22;51603;49.300;8.880;2023-03-23T10:40:32;13.50;99.90
65036;DHT22;51603;49.300;8.880;2023-03-23T10:43:00;13.50;99.90
65036;DHT22;51603;49.300;8.880;2023-03-23T10:45:30;13.60;99.90
65036;DHT22;51603;49.300;8.880;2023-03-23T10:48:14;13.60;99.90
65036;DHT22;51603;49.300;8.880;2023-03-23T10:50:42;13.70;99.90
65036;DHT22;51603;49.300;8.880;2023-03-23T10:53:19;13.80;99.90
65036;DHT22;51603;49.300;8.880;2023-03-23T10:55:45;13.80;99.90
65036;DHT22;51603;49.300;8.880;2023-03-23T10:58:25;13.80;99.90
65036;DHT22;51603;49.300;8.880;2023-03-23T11:00:51;13.90;99.90
65036;DHT22;51603;49.300;8.880;2023-03-23T11:03:24;13.90;99.90
65036;DHT22;51603;49.300;8.880;2023-03-23T11:05:59;13.80;99.90
65036;DHT22;51603;49.300;8.880;2023-03-23T11:08:31;13.90;99.90
65036;DHT22;51603;49.300;8.880;2023-03-23T11:11:10;13.90;99.90
65036;DHT22;51603;49.300;8.880;2023-03-23T11:13:42;13.80;99.90
65036;DHT22;51603;49.300;8.880;2023-03-23T11:16:09;13.70;99.90
65036;DHT22;51603;49.300;8.880;2023-03-23T11:18:40;13.70;99.90
65036;DHT22;51603;49.300;8.880;2023-03-23T11:21:07;13.60;99.90
65036;DHT22;51603;49.300;8.880;2023-03-23T11:23:36;13.50;99.90
65036;DHT22;51603;49.300;8.880;2023-03-23T11:26:30;13.40;99.90
65036;DHT22;51603;49.300;8.880;2023-03-23T11:29:14;13.40;99.90
65036;DHT22;51603;49.300;8.880;2023-03-23T11:31:42;13.30;99.90
65036;DHT22;51603;49.300;8.880;2023-03-23T11:34:16;13.30;99.90
65036;DHT22;51603;49.300;8.880;2023-03-23T11:39:29;13.30;99.90
65036;DHT22;51603;49.300;8.880;2023-03-23T11:41:58;13.20;99.90
65036;DHT22;51603;49.300;8.880;2023-03-23T11:44:35;13.20;99.90
65036;DHT22;51603;49.300;8.880;2023-03-23T11:47:35;13.30;99.90
65036;DHT22;51603;49.300;8.880;2023-03-23T11:50:14;13.30;99.90
65036;DHT22;51603;49.300;8.880;2023-03-23T11:53:13;13.30;99.90
65036;DHT22;51603;49.300;8.880;2023-03-23T11:58:13;13.30;99.90
65036;DHT22;51603;49.300;8.880;2023-03-23T12:00:58;13.30;99.90
65036;DHT22;51603;49.300;8.880;2023-03-23T12:12:12;13.50;99.90
65036;DHT22;51603;49.300;8.880;2023-03-23T12:15:00;13.50;99.90
65036;DHT22;51603;49.300;8.880;2023-03-23T12:18:01;13.60;99.90
65036;DHT22;51603;49.300;8.880;2023-03-23T12:23:22;13.60;99.90
65036;DHT22;51603;49.300;8.880;2023-03-23T12:29:48;13.60;99.90
65036;DHT22;51603;49.300;8.880;2023-03-23T12:32:08;13.60;99.90
65036;DHT22;51603;49.300;8.880;2023-03-23T12:34:50;13.60;99.90
65036;DHT22;51603;49.300;8.880;2023-03-23T12:37:40;13.60;99.90
65036;DHT22;51603;49.300;8.880;2023-03-23T12:43:04;13.70;99.90
65036;DHT22;51603;49.300;8.880;2023-03-23T12:48:45;13.60;99.90
65036;DHT22;51603;49.300;8.880;2023-03-23T13:01:50;13.50;99.90
65036;DHT22;51603;49.300;8.880;2023-03-23T13:04:25;13.40;99.90
65036;DHT22;51603;49.300;8.880;2023-03-23T13:06:53;13.40;99.90
65036;DHT22;51603;49.300;8.880;2023-03-23T13:09:57;13.40;99.90
65036;DHT22;51603;49.300;8.880;2023-03-23T13:12:25;13.40;99.90
65036;DHT22;51603;49.300;8.880;2023-03-23T13:17:46;13.40;99.90
65036;DHT22;51603;49.300;8.880;2023-03-23T13:23:41;13.40;99.90
65036;DHT22;51603;49.300;8.880;2023-03-23T13:26:11;13.30;99.90
65036;DHT22;51603;49.300;8.880;2023-03-23T13:28:56;13.20;99.90
65036;DHT22;51603;49.300;8.880;2023-03-23T13:33:53;13.30;99.90
65036;DHT22;51603;49.300;8.880;2023-03-23T13:36:39;13.40;99.90
65036;DHT22;51603;49.300;8.880;2023-03-23T13:39:20;13.40;99.90
65036;DHT22;51603;49.300;8.880;2023-03-23T13:44:25;13.50;99.90
65036;DHT22;51603;49.300;8.880;2023-03-23T13:46:57;13.50;99.90
65036;DHT22;51603;49.300;8.880;2023-03-23T13:49:24;13.60;99.90
65036;DHT22;51603;49.300;8.880;2023-03-23T13:51:59;13.60;99.90
65036;DHT22;51603;49.300;8.880;2023-03-23T13:54:39;13.60;99.90
65036;DHT22;51603;49.300;8.880;2023-03-23T13:57:26;13.50;99.90
65036;DHT22;51603;49.300;8.880;2023-03-23T13:59:59;13.50;99.90
65036;DHT22;51603;49.300;8.880;2023-03-23T14:02:32;13.40;99.90
65036;DHT22;51603;49.300;8.880;2023-03-23T14:05:10;13.40;99.90
65036;DHT22;51603;49.300;8.880;2023-03-23T14:08:13;13.40;99.90
65036;DHT22;51603;49.300;8.880;2023-03-23T14:10:44;13.40;99.90
65036;DHT22;51603;49.300;8.880;2023-03-23T14:13:21;13.40;99.90
65036;DHT22;51603;49.300;8.880;2023-03-23T14:16:03;13.30;99.90
65036;DHT22;51603;49.300;8.880;2023-03-23T14:18:38;13.30;99.90
65036;DHT22;51603;49.300;8.880;2023-03-23T14:21:05;13.30;99.90
65036;DHT22;51603;49.300;8.880;2023-03-23T14:23:32;13.30;99.90
65036;DHT22;51603;49.300;8.880;2023-03-23T14:26:34;13.30;99.90
65036;DHT22;51603;49.300;8.880;2023-03-23T14:28:53;13.30;99.90
65036;DHT22;51603;49.300;8.880;2023-03-23T14:31:26;13.30;99.90
65036;DHT22;51603;49.300;8.880;2023-03-23T14:33:53;13.30;99.90
65036;DHT22;51603;49.300;8.880;2023-03-23T14:38:46;13.30;99.90
65036;DHT22;51603;49.300;8.880;2023-03-23T14:41:12;13.20;99.90
65036;DHT22;51603;49.300;8.880;2023-03-23T14:43:38;13.20;99.90
65036;DHT22;51603;49.300;8.880;2023-03-23T14:46:07;13.20;99.90
65036;DHT22;51603;49.300;8.880;2023-03-23T14:48:34;13.20;99.90
65036;DHT22;51603;49.300;8.880;2023-03-23T14:51:02;13.30;99.90
65036;DHT22;51603;49.300;8.880;2023-03-23T14:53:35;13.30;99.90
65036;DHT22;51603;49.300;8.880;2023-03-23T14:56:08;13.30;99.90
65036;DHT22;51603;49.300;8.880;2023-03-23T14:58:34;13.30;99.90
65036;DHT22;51603;49.300;8.880;2023-03-23T15:03:28;13.30;99.90
65036;DHT22;51603;49.300;8.880;2023-03-23T15:05:58;13.30;99.90
65036;DHT22;51603;49.300;8.880;2023-03-23T15:08:30;13.30;99.90
65036;DHT22;51603;49.300;8.880;2023-03-23T15:11:27;13.30;99.90
65036;DHT22;51603;49.300;8.880;2023-03-23T15:13:55;13.40;99.90
65036;DHT22;51603;49.300;8.880;2023-03-23T15:16:30;13.40;99.90
65036;DHT22;51603;49.300;8.880;2023-03-23T15:19:05;13.40;99.90
65036;DHT22;51603;49.300;8.880;2023-03-23T15:21:35;13.40;99.90
65036;DHT22;51603;49.300;8.880;2023-03-23T15:24:39;13.40;99.90
65036;DHT22;51603;49.300;8.880;2023-03-23T15:27:12;13.40;99.90
65036;DHT22;51603;49.300;8.880;2023-03-23T15:29:56;13.40;99.90
65036;DHT22;51603;49.300;8.880;2023-03-23T15:32:39;13.50;99.90
65036;DHT22;51603;49.300;8.880;2023-03-23T15:35:16;13.50;99.90
65036;DHT22;51603;49.300;8.880;2023-03-23T15:37:45;13.60;99.90
65036;DHT22;51603;49.300;8.880;2023-03-23T15:40:19;13.60;99.90
65036;DHT22;51603;49.300;8.880;2023-03-23T15:42:45;13.70;99.90
65036;DHT22;51603;49.300;8.880;2023-03-23T15:50:33;13.80;99.90
65036;DHT22;51603;49.300;8.880;2023-03-23T15:52:59;13.80;99.90
65036;DHT22;51603;49.300;8.880;2023-03-23T15:55:28;13.80;99.90
65036;DHT22;51603;49.300;8.880;2023-03-23T15:57:56;13.80;99.90
65036;DHT22;51603;49.300;8.880;2023-03-23T16:00:24;13.90;99.90
65036;DHT22;51603;49.300;8.880;2023-03-23T16:02:58;13.90;99.90
65036;DHT22;51603;49.300;8.880;2023-03-23T16:05:25;13.90;99.90
65036;DHT22;51603;49.300;8.880;2023-03-23T16:07:51;13.90;99.90
65036;DHT22;51603;49.300;8.880;2023-03-23T16:10:19;13.90;99.90
65036;DHT22;51603;49.300;8.880;2023-03-23T16:12:45;13.90;99.90
65036;DHT22;51603;49.300;8.880;2023-03-23T16:15:12;13.90;99.90
65036;DHT22;51603;49.300;8.880;2023-03-23T16:17:38;13.90;99.90
65036;DHT22;51603;49.300;8.880;2023-03-23T16:20:15;13.90;99.90
65036;DHT22;51603;49.300;8.880;2023-03-23T16:22:41;13.90;99.90
65036;DHT22;51603;49.300;8.880;2023-03-23T16:25:08;14.00;99.90
65036;DHT22;51603;49.300;8.880;2023-03-23T16:27:34;14.10;99.90
65036;DHT22;51603;49.300;8.880;2023-03-23T16:30:00;14.10;99.90
65036;DHT22;51603;49.300;8.880;2023-03-23T16:32:27;14.10;99.90
65036;DHT22;51603;49.300;8.880;2023-03-23T16:34:53;14.10;99.90
65036;DHT22;51603;49.300;8.880;2023-03-23T16:37:19;14.10;99.90
65036;DHT22;51603;49.300;8.880;2023-03-23T16:39:45;14.10;99.90
65036;DHT22;51603;49.300;8.880;2023-03-23T16:42:11;14.00;99.90
65036;DHT22;51603;49.300;8.880;2023-03-23T16:44:36;14.10;99.90
65036;DHT22;51603;49.300;8.880;2023-03-23T16:47:02;14.00;99.90
65036;DHT22;51603;49.300;8.880;2023-03-23T16:49:27;14.00;99.90
65036;DHT22;51603;49.300;8.880;2023-03-23T16:51:53;14.00;99.90
65036;DHT22;51603;49.300;8.880;2023-03-23T16:54:18;13.90;99.90
65036;DHT22;51603;49.300;8.880;2023-03-23T16:56:44;13.90;99.90
65036;DHT22;51603;49.300;8.880;2023-03-23T16:59:11;13.90;99.90
65036;DHT22;51603;49.300;8.880;2023-03-23T17:01:37;13.90;99.90
65036;DHT22;51603;49.300;8.880;2023-03-23T17:04:03;13.80;99.90
65036;DHT22;51603;49.300;8.880;2023-03-23T17:06:29;13.80;99.90
65036;DHT22;51603;49.300;8.880;2023-03-23T17:08:55;13.80;99.90
65036;DHT22;51603;49.300;8.880;2023-03-23T17:11:20;13.80;99.90
65036;DHT22;51603;49.300;8.880;2023-03-23T17:13:47;13.70;99.90
65036;DHT22;51603;49.300;8.880;2023-03-23T17:16:13;13.70;99.90
65036;DHT22;51603;49.300;8.880;2023-03-23T17:18:38;13.70;99.90
65036;DHT22;51603;49.300;8.880;2023-03-23T17:21:04;13.60;99.90
65036;DHT22;51603;49.300;8.880;2023-03-23T17:23:31;13.60;99.90
65036;DHT22;51603;49.300;8.880;2023-03-23T17:25:56;13.60;99.90